createdAt,value
2022-08-28T00:00:38.466Z,99119.00
2022-08-28T00:03:07.185Z,99127.78
2022-08-28T00:05:36.197Z,99120.81
2022-08-28T00:08:05.765Z,99119.75
2022-08-28T00:10:35.188Z,99117.16
2022-08-28T00:13:03.165Z,99111.19
2022-08-28T00:15:34.157Z,99122.69
2022-08-28T00:18:03.788Z,99115.53
2022-08-28T00:20:33.344Z,99118.97
2022-08-28T00:23:02.114Z,99109.31
2022-08-28T00:25:32.572Z,99119.88
2022-08-28T00:28:05.321Z,99119.25
2022-08-28T00:30:40.580Z,99116.56
2022-08-28T00:33:10.690Z,99114.78
2022-08-28T00:35:40.643Z,99113.00
2022-08-28T00:38:10.146Z,99115.75
2022-08-28T00:40:42.825Z,99115.94
2022-08-28T00:43:23.371Z,99114.25
2022-08-28T00:45:51.334Z,99107.06
2022-08-28T00:48:19.718Z,99105.28
2022-08-28T00:51:05.487Z,99103.50
2022-08-28T00:53:33.693Z,99103.50
2022-08-28T00:56:12.819Z,99098.19
2022-08-28T00:58:42.887Z,99106.06
2022-08-28T01:01:11.056Z,99100.91
2022-08-28T01:03:39.348Z,99109.72
2022-08-28T01:06:08.299Z,99113.16
2022-08-28T01:08:38.842Z,99112.28
2022-08-28T01:11:09.212Z,99109.84
2022-08-28T01:13:39.861Z,99113.38
2022-08-28T01:16:09.433Z,99108.03
2022-08-28T01:18:37.532Z,99104.47
2022-08-28T01:21:12.832Z,99110.78
2022-08-28T01:23:54.523Z,99111.63
2022-08-28T01:26:23.080Z,99114.28
2022-08-28T01:28:52.092Z,99118.81
2022-08-28T01:31:21.701Z,99115.28
2022-08-28T01:33:49.989Z,99112.63
2022-08-28T01:36:18.689Z,99115.28
2022-08-28T01:38:49.318Z,99112.59
2022-08-28T01:41:19.266Z,99109.06
2022-08-28T01:43:47.251Z,99106.69
2022-08-28T01:46:15.237Z,99111.03
2022-08-28T01:48:45.229Z,99119.06
2022-08-28T01:51:14.520Z,99119.91
2022-08-28T01:53:45.051Z,99124.25
2022-08-28T01:56:17.893Z,99126.91
2022-08-28T01:58:48.358Z,99131.41
2022-08-28T02:01:20.422Z,99123.50
2022-08-28T02:03:49.167Z,99123.72
2022-08-28T02:06:17.905Z,99126.25
2022-08-28T02:08:46.005Z,99131.56
2022-08-28T02:11:14.169Z,99124.50
2022-08-28T02:13:42.149Z,99125.53
2022-08-28T02:16:13.240Z,99124.56
2022-08-28T02:18:41.321Z,99114.84
2022-08-28T02:21:11.004Z,99124.66
2022-08-28T02:23:40.641Z,99114.97
2022-08-28T02:26:09.952Z,99116.72
2022-08-28T02:28:38.642Z,99121.03
2022-08-28T02:31:09.459Z,99114.06
2022-08-28T02:33:39.424Z,99108.19
2022-08-28T02:36:09.961Z,99106.47
2022-08-28T02:38:38.233Z,99101.09
2022-08-28T02:41:07.036Z,99109.81
2022-08-28T02:43:35.671Z,99112.41
2022-08-28T02:46:04.704Z,99115.88
2022-08-28T02:48:34.829Z,99114.97
2022-08-28T02:51:07.215Z,99112.47
2022-08-28T02:53:35.844Z,99112.56
2022-08-28T02:56:05.079Z,99113.34
2022-08-28T02:58:35.428Z,99110.84
2022-08-28T03:01:05.075Z,99106.59
2022-08-28T03:03:33.572Z,99103.00
2022-08-28T03:06:04.012Z,99095.94
2022-08-28T03:08:32.626Z,99102.03
2022-08-28T03:11:01.639Z,99111.75
2022-08-28T03:13:30.175Z,99111.66
2022-08-28T03:15:59.350Z,99104.69
2022-08-28T03:18:30.254Z,99101.13
2022-08-28T03:20:58.369Z,99106.41
2022-08-28T03:23:28.022Z,99100.22
2022-08-28T03:25:58.868Z,99103.72
2022-08-28T03:28:28.028Z,99103.69
2022-08-28T03:30:56.216Z,99095.81
2022-08-28T03:33:24.565Z,99100.25
2022-08-28T03:35:52.838Z,99104.59
2022-08-28T03:38:21.508Z,99102.91
2022-08-28T03:40:51.776Z,99102.88
2022-08-28T03:43:21.814Z,99101.13
2022-08-28T03:45:54.890Z,99101.16
2022-08-28T03:48:24.436Z,99103.81
2022-08-28T03:50:54.266Z,99110.94
2022-08-28T03:53:24.848Z,99102.13
2022-08-28T03:55:54.559Z,99110.03
2022-08-28T03:58:22.615Z,99105.63
2022-08-28T04:00:51.158Z,99102.19
2022-08-28T04:03:19.667Z,99101.44
2022-08-28T04:05:48.366Z,99102.28
2022-08-28T04:08:17.925Z,99100.47
2022-08-28T04:10:47.033Z,99096.97
2022-08-28T04:13:17.886Z,99101.44
2022-08-28T04:15:46.105Z,99102.34
2022-08-28T04:18:14.597Z,99098.81
2022-08-28T04:20:42.653Z,99102.34
2022-08-28T04:23:14.485Z,99101.44
2022-08-28T04:25:42.479Z,99104.03
2022-08-28T04:28:10.645Z,99108.44
2022-08-28T04:30:42.207Z,99107.53
2022-08-28T04:33:10.575Z,99109.31
2022-08-28T04:35:38.615Z,99113.72
2022-08-28T04:38:06.752Z,99113.72
2022-08-28T04:40:34.989Z,99106.69
2022-08-28T04:43:03.019Z,99108.47
2022-08-28T04:45:31.121Z,99109.31
2022-08-28T04:48:00.678Z,99108.47
2022-08-28T04:50:33.596Z,99106.72
2022-08-28T04:53:01.568Z,99107.63
2022-08-28T04:55:53.783Z,99117.34
2022-08-28T04:58:19.596Z,99111.16
2022-08-28T05:00:52.645Z,99112.91
2022-08-28T05:03:22.392Z,99116.41
2022-08-28T05:05:52.981Z,99114.69
2022-08-28T05:08:23.329Z,99125.22
2022-08-28T05:10:51.542Z,99125.28
2022-08-28T05:13:20.793Z,99122.59
2022-08-28T05:15:51.423Z,99121.72
2022-08-28T05:18:23.987Z,99118.16
2022-08-28T05:20:52.041Z,99120.81
2022-08-28T05:23:22.123Z,99121.75
2022-08-28T05:25:53.549Z,99119.09
2022-08-28T05:28:21.973Z,99131.41
2022-08-28T05:30:49.887Z,99128.78
2022-08-28T05:33:17.850Z,99127.91
2022-08-28T05:35:48.495Z,99136.72
2022-08-28T05:38:17.668Z,99134.06
2022-08-28T05:40:49.162Z,99135.81
2022-08-28T05:43:18.417Z,99136.69
2022-08-28T05:45:46.475Z,99141.94
2022-08-28T05:48:16.585Z,99155.06
2022-08-28T05:50:47.305Z,99159.38
2022-08-28T05:53:18.112Z,99162.88
2022-08-28T05:55:48.174Z,99157.59
2022-08-28T05:58:34.624Z,99162.91
2022-08-28T06:01:11.557Z,99154.91
2022-08-28T06:03:40.786Z,99163.66
2022-08-28T06:06:09.930Z,99168.06
2022-08-28T06:08:58.250Z,99168.00
2022-08-28T06:11:27.190Z,99172.28
2022-08-28T06:13:59.891Z,99167.69
2022-08-28T06:16:29.865Z,99168.38
2022-08-28T06:18:58.476Z,99180.59
2022-08-28T06:21:26.485Z,99179.53
2022-08-28T06:23:56.419Z,99167.22
2022-08-28T06:26:24.509Z,99188.34
2022-08-28T06:28:53.688Z,99190.81
2022-08-28T06:31:24.723Z,99195.66
2022-08-28T06:33:54.084Z,99190.59
2022-08-28T06:36:22.454Z,99196.16
2022-08-28T06:38:50.858Z,99186.66
2022-08-28T06:41:20.260Z,99183.97
2022-08-28T06:43:48.314Z,99186.56
2022-08-28T06:46:16.471Z,99188.22
2022-08-28T06:48:44.460Z,99184.94
2022-08-28T06:51:13.846Z,99193.13
2022-08-28T06:53:43.954Z,99189.88
2022-08-28T06:56:26.444Z,99189.06
2022-08-28T06:58:59.232Z,99194.44
2022-08-28T07:01:30.840Z,99200.75
2022-08-28T07:04:04.854Z,99202.25
2022-08-28T07:06:35.235Z,99198.00
2022-08-28T07:09:05.298Z,99199.59
2022-08-28T07:11:35.395Z,99207.25
2022-08-28T07:14:05.369Z,99206.47
2022-08-28T07:16:38.326Z,99210.94
2022-08-28T07:19:07.489Z,99215.56
2022-08-28T07:21:38.761Z,99201.91
2022-08-28T07:24:07.737Z,99201.00
2022-08-28T07:26:37.578Z,99206.31
2022-08-28T07:29:09.865Z,99205.66
2022-08-28T07:31:40.934Z,99214.78
2022-08-28T07:34:10.626Z,99214.88
2022-08-28T07:36:39.736Z,99217.69
2022-08-28T07:39:09.156Z,99216.44
2022-08-28T07:41:40.234Z,99219.56
2022-08-28T07:44:29.718Z,99219.34
2022-08-28T07:47:00.047Z,99212.75
2022-08-28T07:49:28.263Z,99220.88
2022-08-28T07:51:56.236Z,99213.66
2022-08-28T07:54:24.654Z,99222.25
2022-08-28T07:56:53.716Z,99217.75
2022-08-28T07:59:23.164Z,99223.66
2022-08-28T08:01:52.710Z,99231.22
2022-08-28T08:04:23.248Z,99226.66
2022-08-28T08:06:57.199Z,99226.72
2022-08-28T08:09:27.364Z,99213.88
2022-08-28T08:11:57.458Z,99214.28
2022-08-28T08:14:27.079Z,99211.53
2022-08-28T08:16:55.134Z,99214.22
2022-08-28T08:19:23.186Z,99204.75
2022-08-28T08:21:55.366Z,99205.03
2022-08-28T08:24:26.614Z,99193.03
2022-08-28T08:27:00.126Z,99198.97
2022-08-28T08:29:32.375Z,99189.91
2022-08-28T08:32:05.606Z,99191.47
2022-08-28T08:34:35.367Z,99185.78
2022-08-28T08:37:03.696Z,99191.34
2022-08-28T08:39:32.408Z,99184.44
2022-08-28T08:42:03.446Z,99195.50
2022-08-28T08:44:35.367Z,99192.34
2022-08-28T08:47:14.942Z,99187.38
2022-08-28T08:50:01.555Z,99191.00
2022-08-28T08:52:38.762Z,99194.56
2022-08-28T08:55:15.017Z,99192.97
2022-08-28T08:57:49.216Z,99191.22
2022-08-28T09:00:20.452Z,99188.75
2022-08-28T09:02:56.034Z,99187.97
2022-08-28T09:05:39.679Z,99194.53
2022-08-28T09:08:13.741Z,99205.06
2022-08-28T09:10:54.637Z,99199.84
2022-08-28T09:13:29.549Z,99199.81
2022-08-28T09:15:59.169Z,99201.34
2022-08-28T09:18:32.789Z,99197.72
2022-08-28T09:21:02.534Z,99207.19
2022-08-28T09:23:31.414Z,99210.19
2022-08-28T09:26:02.099Z,99203.56
2022-08-28T09:28:34.299Z,99205.16
2022-08-28T09:31:07.704Z,99200.09
2022-08-28T09:33:43.204Z,99204.56
2022-08-28T09:36:28.718Z,99204.91
2022-08-28T09:39:15.183Z,99203.47
2022-08-28T09:42:10.885Z,99192.16
2022-08-28T09:44:56.364Z,99203.94
2022-08-28T09:47:46.205Z,99194.16
2022-08-28T09:50:38.778Z,99196.56
2022-08-28T09:53:20.840Z,99201.53
2022-08-28T09:55:58.697Z,99195.88
2022-08-28T09:58:34.137Z,99203.19
2022-08-28T10:01:11.143Z,99192.78
2022-08-28T10:03:47.008Z,99201.91
2022-08-28T10:06:20.024Z,99188.22
2022-08-28T10:09:02.908Z,99188.03
2022-08-28T10:11:44.376Z,99191.94
2022-08-28T10:14:29.556Z,99192.28
2022-08-28T10:17:05.862Z,99187.09
2022-08-28T10:19:44.838Z,99188.72
2022-08-28T10:22:26.653Z,99191.59
2022-08-28T10:25:15.001Z,99195.50
2022-08-28T10:27:55.846Z,99195.00
2022-08-28T10:30:26.184Z,99195.06
2022-08-28T10:33:22.498Z,99196.38
2022-08-28T10:35:57.387Z,99193.13
2022-08-28T10:38:36.720Z,99193.94
2022-08-28T10:41:09.646Z,99187.75
2022-08-28T10:43:43.323Z,99193.66
2022-08-28T10:46:17.493Z,99195.72
2022-08-28T10:48:52.304Z,99195.81
2022-08-28T10:51:35.830Z,99192.41
2022-08-28T10:54:14.798Z,99192.28
2022-08-28T10:56:48.310Z,99193.66
2022-08-28T10:59:25.171Z,99193.66
2022-08-28T11:01:54.048Z,99185.59
2022-08-28T11:04:25.661Z,99189.16
2022-08-28T11:06:58.561Z,99194.22
2022-08-28T11:09:33.273Z,99196.91
2022-08-28T11:12:04.199Z,99191.81
2022-08-28T11:14:35.513Z,99197.63
2022-08-28T11:17:10.239Z,99184.00
2022-08-28T11:20:05.358Z,99184.72
2022-08-28T11:22:39.730Z,99179.47
2022-08-28T11:25:17.670Z,99169.84
2022-08-28T11:28:14.810Z,99175.00
2022-08-28T11:30:45.800Z,99170.09
2022-08-28T11:33:36.684Z,99173.00
2022-08-28T11:36:05.777Z,99169.81
2022-08-28T11:39:05.863Z,99161.16
2022-08-28T11:41:36.551Z,99163.78
2022-08-28T11:44:41.077Z,99160.13
2022-08-28T11:47:38.560Z,99159.53
2022-08-28T11:50:15.759Z,99164.66
2022-08-28T11:53:11.826Z,99168.44
2022-08-28T11:55:59.222Z,99169.00
2022-08-28T11:58:35.609Z,99158.19
2022-08-28T12:01:07.627Z,99157.72
2022-08-28T12:03:40.217Z,99160.19
2022-08-28T12:06:08.965Z,99158.66
2022-08-28T12:09:12.928Z,99156.00
2022-08-28T12:12:04.132Z,99152.47
2022-08-28T12:15:10.103Z,99155.97
2022-08-28T12:18:01.445Z,99152.50
2022-08-28T12:20:34.865Z,99158.56
2022-08-28T12:23:05.398Z,99153.25
2022-08-28T12:25:37.573Z,99150.63
2022-08-28T12:28:19.701Z,99146.72
2022-08-28T12:30:59.409Z,99146.84
2022-08-28T12:33:36.439Z,99146.25
2022-08-28T12:36:07.148Z,99140.84
2022-08-28T12:38:36.358Z,99141.19
2022-08-28T12:41:05.178Z,99136.03
2022-08-28T12:43:41.734Z,99145.44
2022-08-28T12:46:20.516Z,99135.72
2022-08-28T12:48:50.628Z,99153.50
2022-08-28T12:51:22.340Z,99138.31
2022-08-28T12:53:52.483Z,99138.50
2022-08-28T12:56:22.912Z,99129.16
2022-08-28T12:58:52.456Z,99132.88
2022-08-28T13:01:29.141Z,99126.41
2022-08-28T13:04:00.576Z,99125.81
2022-08-28T13:06:30.385Z,99124.88
2022-08-28T13:09:02.803Z,99115.78
2022-08-28T13:11:35.349Z,99114.06
2022-08-28T13:14:05.510Z,99109.19
2022-08-28T13:16:41.128Z,99118.19
2022-08-28T13:19:22.839Z,99105.16
2022-08-28T13:21:58.857Z,99113.53
2022-08-28T13:24:46.765Z,99111.44
2022-08-28T13:27:22.574Z,99105.59
2022-08-28T13:30:00.883Z,99103.97
2022-08-28T13:32:30.497Z,99100.53
2022-08-28T13:35:33.190Z,99096.91
2022-08-28T13:38:03.683Z,99090.75
2022-08-28T13:43:25.366Z,99084.56
2022-08-28T13:45:55.247Z,99090.94
2022-08-28T13:48:26.368Z,99090.38
2022-08-28T13:50:58.193Z,99075.13
2022-08-28T13:53:26.144Z,99074.06
2022-08-28T13:55:54.193Z,99071.19
2022-08-28T13:58:22.203Z,99069.50
2022-08-28T14:00:51.805Z,99062.66
2022-08-28T14:03:36.063Z,99060.69
2022-08-28T14:06:05.399Z,99065.22
2022-08-28T14:08:33.444Z,99065.84
2022-08-28T14:11:01.803Z,99066.06
2022-08-28T14:13:30.224Z,99063.88
2022-08-28T14:15:59.311Z,99060.91
2022-08-28T14:18:29.129Z,99056.84
2022-08-28T14:20:57.120Z,99046.31
2022-08-28T14:23:25.061Z,99056.56
2022-08-28T14:25:53.020Z,99048.19
2022-08-28T14:28:20.968Z,99043.63
2022-08-28T14:30:51.227Z,99038.78
2022-08-28T14:33:20.537Z,99042.09
2022-08-28T14:35:50.636Z,99037.84
2022-08-28T14:38:18.916Z,99032.44
2022-08-28T14:40:46.885Z,99023.84
2022-08-28T14:43:15.973Z,99027.31
2022-08-28T14:45:46.114Z,99034.19
2022-08-28T14:48:15.709Z,99021.38
2022-08-28T14:50:45.752Z,99031.75
2022-08-28T14:53:17.059Z,99015.28
2022-08-28T14:55:48.339Z,99013.56
2022-08-28T14:58:17.948Z,99015.00
2022-08-28T15:00:48.863Z,99008.19
2022-08-28T15:03:18.555Z,99010.25
2022-08-28T15:05:47.477Z,99008.13
2022-08-28T15:08:18.413Z,99013.91
2022-08-28T15:10:48.605Z,99004.34
2022-08-28T15:13:16.570Z,99004.31
2022-08-28T15:15:44.632Z,99000.25
2022-08-28T15:18:12.786Z,99007.06
2022-08-28T15:20:42.696Z,99010.03
2022-08-28T15:23:13.138Z,98999.00
2022-08-28T15:25:42.697Z,98994.88
2022-08-28T15:28:11.686Z,99001.75
2022-08-28T15:30:40.098Z,99002.94
2022-08-28T15:33:09.242Z,98999.06
2022-08-28T15:35:37.263Z,98998.63
2022-08-28T15:38:05.856Z,99002.16
2022-08-28T15:40:52.037Z,98996.13
2022-08-28T15:43:21.644Z,99004.69
2022-08-28T15:45:50.110Z,98999.66
2022-08-28T15:48:18.112Z,99004.31
2022-08-28T15:50:46.056Z,99000.34
2022-08-28T15:53:14.228Z,99004.34
2022-08-28T15:55:46.697Z,98991.03
2022-08-28T15:58:14.933Z,98995.59
2022-08-28T16:00:44.587Z,98993.94
2022-08-28T16:03:13.004Z,98998.66
2022-08-28T16:05:41.250Z,98995.22
2022-08-28T16:08:11.003Z,98999.91
2022-08-28T16:10:39.406Z,99003.53
2022-08-28T16:13:07.330Z,98993.88
2022-08-28T16:15:36.221Z,98986.75
2022-08-28T16:18:09.386Z,98989.53
2022-08-28T16:20:38.352Z,98982.94
2022-08-28T16:23:06.352Z,98988.47
2022-08-28T16:25:34.504Z,98983.34
2022-08-28T16:28:02.640Z,98991.72
2022-08-28T16:30:30.889Z,98989.00
2022-08-28T16:32:58.867Z,98992.72
2022-08-28T16:35:28.347Z,98985.00
2022-08-28T16:37:57.601Z,98990.06
2022-08-28T16:40:25.820Z,98982.53
2022-08-28T16:42:55.770Z,98980.66
2022-08-28T16:45:24.084Z,98976.88
2022-08-28T16:47:52.026Z,98979.06
2022-08-28T16:50:20.502Z,98989.75
2022-08-28T16:52:49.949Z,98986.09
2022-08-28T16:55:17.874Z,98974.16
2022-08-28T16:57:45.976Z,98975.94
2022-08-28T17:00:14.836Z,98974.75
2022-08-28T17:02:43.770Z,98976.84
2022-08-28T17:05:12.085Z,98984.09
2022-08-28T17:07:40.984Z,98981.50
2022-08-28T17:10:12.620Z,98973.38
2022-08-28T17:12:40.659Z,98977.47
2022-08-28T17:15:11.341Z,98974.97
2022-08-28T17:17:39.530Z,98973.91
2022-08-28T17:20:29.129Z,98971.97
2022-08-28T17:22:56.382Z,98970.03
2022-08-28T17:25:26.462Z,98969.34
2022-08-28T17:27:54.402Z,98960.88
2022-08-28T17:30:22.715Z,98962.03
2022-08-28T17:32:51.723Z,98967.81
2022-08-28T17:35:20.128Z,98956.41
2022-08-28T17:37:50.720Z,98948.38
2022-08-28T17:40:19.283Z,98953.41
2022-08-28T17:42:52.945Z,98954.44
2022-08-28T17:45:21.777Z,98961.06
2022-08-28T17:47:50.916Z,98954.09
2022-08-28T17:50:19.522Z,98958.38
2022-08-28T17:52:47.900Z,98961.47
2022-08-28T17:55:17.492Z,98960.75
2022-08-28T17:57:45.463Z,98951.78
2022-08-28T18:00:18.384Z,98953.31
2022-08-28T18:02:46.857Z,98949.84
2022-08-28T18:05:15.545Z,98944.28
2022-08-28T18:07:43.557Z,98945.78
2022-08-28T18:10:12.180Z,98944.34
2022-08-28T18:12:40.738Z,98945.59
2022-08-28T18:15:12.266Z,98947.84
2022-08-28T18:17:43.980Z,98946.78
2022-08-28T18:20:13.467Z,98950.28
2022-08-28T18:22:41.499Z,98963.09
2022-08-28T18:25:30.728Z,98962.81
2022-08-28T18:27:58.726Z,98953.25
2022-08-28T18:30:27.235Z,98967.47
2022-08-28T18:32:58.501Z,98968.66
2022-08-28T18:35:31.705Z,98984.56
2022-08-28T18:38:00.940Z,98969.31
2022-08-28T18:40:29.468Z,98970.56
2022-08-28T18:42:57.457Z,98969.31
2022-08-28T18:45:25.809Z,98967.13
2022-08-28T18:47:53.773Z,98963.94
2022-08-28T18:50:23.235Z,98969.78
2022-08-28T18:52:51.869Z,98984.28
2022-08-28T18:55:20.803Z,98979.34
2022-08-28T18:57:48.732Z,98981.94
2022-08-28T19:00:20.098Z,98988.06
2022-08-28T19:02:48.136Z,98987.78
2022-08-28T19:05:16.138Z,98991.84
2022-08-28T19:07:45.539Z,98991.56
2022-08-28T19:10:32.060Z,98993.53
2022-08-28T19:13:01.921Z,98991.44
2022-08-28T19:15:30.710Z,98989.88
2022-08-28T19:18:00.306Z,99000.97
2022-08-28T19:20:29.586Z,99002.16
2022-08-28T19:22:59.877Z,98999.09
2022-08-28T19:25:30.390Z,99002.78
2022-08-28T19:27:59.453Z,99003.75
2022-08-28T19:30:29.015Z,99009.91
2022-08-28T19:32:57.023Z,99007.38
2022-08-28T19:35:25.198Z,99012.97
2022-08-28T19:37:53.431Z,99019.03
2022-08-28T19:40:23.612Z,99023.66
2022-08-28T19:42:52.140Z,99025.66
2022-08-28T19:45:20.900Z,99029.91
2022-08-28T19:47:48.856Z,99042.88
2022-08-28T19:50:17.519Z,99046.44
2022-08-28T19:52:47.012Z,99047.09
2022-08-28T19:55:18.287Z,99046.25
2022-08-28T19:57:48.706Z,99046.00
2022-08-28T20:00:18.222Z,99055.06
2022-08-28T20:02:47.631Z,99052.34
2022-08-28T20:05:16.066Z,99059.63
2022-08-28T20:07:44.507Z,99059.78
2022-08-28T20:10:13.931Z,99055.84
2022-08-28T20:12:48.412Z,99055.97
2022-08-28T20:15:20.833Z,99053.41
2022-08-28T20:17:50.335Z,99060.75
2022-08-28T20:20:19.603Z,99059.53
2022-08-28T20:22:47.611Z,99062.63
2022-08-28T20:25:18.288Z,99067.28
2022-08-28T20:27:46.291Z,99067.28
2022-08-28T20:30:14.863Z,99065.84
2022-08-28T20:32:44.286Z,99071.56
2022-08-28T20:35:13.630Z,99074.13
2022-08-28T20:37:45.393Z,99077.63
2022-08-28T20:40:18.200Z,99075.38
2022-08-28T20:42:46.880Z,99067.47
2022-08-28T20:45:16.208Z,99071.88
2022-08-28T20:47:46.177Z,99077.06
2022-08-28T20:50:15.036Z,99079.50
2022-08-28T20:52:43.007Z,99068.19
2022-08-28T20:55:13.164Z,99075.47
2022-08-28T20:57:41.613Z,99071.88
2022-08-28T21:00:11.454Z,99073.06
2022-08-28T21:02:39.463Z,99078.34
2022-08-28T21:05:10.342Z,99089.47
2022-08-28T21:07:38.394Z,99090.34
2022-08-28T21:10:08.010Z,99094.31
2022-08-28T21:12:36.738Z,99090.88
2022-08-28T21:15:05.792Z,99087.31
2022-08-28T21:17:33.756Z,99081.94
2022-08-28T21:20:04.141Z,99083.00
2022-08-28T21:22:35.891Z,99084.78
2022-08-28T21:25:05.244Z,99081.78
2022-08-28T21:27:33.283Z,99084.00
2022-08-28T21:30:02.342Z,99086.66
2022-08-28T21:32:32.662Z,99095.41
2022-08-28T21:35:01.068Z,99105.22
2022-08-28T21:37:29.539Z,99111.63
2022-08-28T21:40:00.754Z,99114.63
2022-08-28T21:42:29.461Z,99118.97
2022-08-28T21:44:57.433Z,99123.69
2022-08-28T21:47:25.775Z,99133.28
2022-08-28T21:49:56.297Z,99140.19
2022-08-28T21:52:27.816Z,99141.25
2022-08-28T21:54:58.611Z,99137.91
2022-08-28T21:57:28.376Z,99144.94
2022-08-28T21:59:56.741Z,99141.44
2022-08-28T22:02:24.812Z,99140.00
2022-08-28T22:04:52.920Z,99131.59
2022-08-28T22:07:21.237Z,99133.78
2022-08-28T22:09:49.470Z,99123.00
2022-08-28T22:12:17.496Z,99129.81
2022-08-28T22:14:46.819Z,99127.00
2022-08-28T22:17:16.336Z,99139.38
2022-08-28T22:19:45.406Z,99135.28
2022-08-28T22:22:32.760Z,99123.34
2022-08-28T22:25:00.731Z,99130.63
2022-08-28T22:27:28.865Z,99141.00
2022-08-28T22:29:58.457Z,99133.53
2022-08-28T22:32:26.984Z,99135.91
2022-08-28T22:34:55.809Z,99133.34
2022-08-28T22:37:24.065Z,99128.28
2022-08-28T22:39:52.082Z,99130.94
2022-08-28T22:42:20.936Z,99126.09
2022-08-28T22:44:48.863Z,99131.41
2022-08-28T22:47:18.860Z,99128.63
2022-08-28T22:49:47.195Z,99139.41
2022-08-28T22:52:15.433Z,99131.34
2022-08-28T22:54:43.610Z,99122.75
2022-08-28T22:57:11.780Z,99129.13
2022-08-28T22:59:39.840Z,99122.84
2022-08-28T23:02:08.386Z,99129.13
2022-08-28T23:04:37.987Z,99120.47
2022-08-28T23:07:06.711Z,99121.66
2022-08-28T23:09:36.062Z,99132.66
2022-08-28T23:12:04.819Z,99126.56
2022-08-28T23:14:32.859Z,99130.09
2022-08-28T23:17:01.287Z,99130.00
2022-08-28T23:19:30.351Z,99127.53
2022-08-28T23:21:59.884Z,99124.28
2022-08-28T23:24:27.905Z,99116.28
2022-08-28T23:26:55.886Z,99113.75
2022-08-28T23:29:23.869Z,99113.84
2022-08-28T23:31:52.059Z,99124.13
2022-08-28T23:34:20.061Z,99138.13
2022-08-28T23:36:48.219Z,99137.91
2022-08-28T23:39:18.057Z,99150.13
2022-08-28T23:41:46.160Z,99151.41
2022-08-28T23:44:14.625Z,99159.13
2022-08-28T23:46:42.592Z,99157.00
2022-08-28T23:49:11.399Z,99143.94
2022-08-28T23:51:39.827Z,99137.44
2022-08-28T23:54:09.210Z,99137.31
2022-08-28T23:56:38.761Z,99130.91
2022-08-28T23:59:07.402Z,99143.31
